Time;durP1;ratioP1;P1;durP2;ratioP2;P2;SDS_P1;SDS_P2;PMS_P1;PMS_P2;Temp;Humidity;BMP_temperature;BMP_pressure;BME280_temperature;BME280_humidity;BME280_pressure;Samples;Min_cycle;Max_cycle;Signal;HPM_P1;HPM_P2
2023/11/20 00:02:21;;;;;;;;;;;;;;;;;;5108466;28;20360;-63
2023/11/20 00:04:47;;;;;;;;;;;;;;;;;;5111782;28;19923;-63
2023/11/20 00:07:13;;;;;;;;;;;;;;;;;;5108542;28;19927;-62
2023/11/20 00:09:39;;;;;;;;;;;;;;;;;;5109019;27;20005;-62
2023/11/20 00:12:05;;;;;;;;;;;;;;;;;;5111575;27;19931;-62
2023/11/20 00:14:31;;;;;;;;;;;;;;;;;;5111376;28;19923;-63
2023/11/20 00:16:57;;;;;;;;;;;;;;;;;;5110933;28;19927;-62
2023/11/20 00:19:23;;;;;;;;;;;;;;;;;;5106589;28;19919;-62
2023/11/20 00:21:49;;;;;;;;;;;;;;;;;;5105526;28;19919;-62
2023/11/20 00:24:15;;;;;;;;;;;;;;;;;;5110478;28;19995;-62
2023/11/20 00:26:41;;;;;;;;;;;;;;;;;;5110381;28;19965;-62
2023/11/20 00:29:10;;;;;;;;;;;;;;;;;;5110936;28;19923;-63
2023/11/20 00:31:36;;;;;;;;;;;;;;;;;;5107831;28;19927;-62
2023/11/20 00:34:02;;;;;;;;;;;;;;;;;;5107006;28;19934;-62
2023/11/20 00:36:28;;;;;;;;;;;;;;;;;;5106934;28;20447;-62
2023/11/20 00:38:54;;;;;;;;;;;;;;;;;;5110127;28;19924;-62
2023/11/20 00:41:20;;;;;;;;;;;;;;;;;;5109399;28;20650;-61
2023/11/20 00:43:46;;;;;;;;;;;;;;;;;;5111033;28;19931;-62
2023/11/20 00:46:13;;;;;;;;;;;;;;;;;;5102738;28;20393;-62
2023/11/20 00:48:39;;;;;;;;;;;;;;;;;;5099943;28;19976;-62
2023/11/20 00:51:05;;;;;;;;;;;;;;;;;;5107676;28;19920;-61
2023/11/20 00:53:31;;;;;;;;;;;;;;;;;;5109146;28;19924;-62
2023/11/20 00:55:57;;;;;;;;;;;;;;;;;;5110506;28;19938;-62
2023/11/20 00:58:23;;;;;;;;;;;;;;;;;;5110807;28;19927;-62
2023/11/20 01:00:51;;;;;;;;;;;;;;;;;;5107251;28;19926;-62
2023/11/20 01:03:17;;;;;;;;;;;;;;;;;;5108644;28;20003;-61
2023/11/20 01:05:43;;;;;;;;;;;;;;;;;;5102817;28;20089;-61
2023/11/20 01:08:09;;;;;;;;;;;;;;;;;;5105603;28;19923;-61
2023/11/20 01:10:35;;;;;;;;;;;;;;;;;;5109452;28;19930;-62
2023/11/20 01:13:01;;;;;;;;;;;;;;;;;;5104822;28;19927;-62
2023/11/20 01:15:29;;;;;;;;;;;;;;;;;;5108340;28;19931;-63
2023/11/20 01:17:55;;;;;;;;;;;;;;;;;;5108079;28;19920;-63
2023/11/20 01:20:21;;;;;;;;;;;;;;;;;;5108241;28;19920;-62
2023/11/20 01:22:47;;;;;;;;;;;;;;;;;;5105288;28;20387;-63
2023/11/20 01:25:13;;;;;;;;;;;;;;;;;;5107103;28;20462;-62
2023/11/20 01:27:39;;;;;;;;;;;;;;;;;;5107328;28;19927;-63
2023/11/20 01:30:05;;;;;;;;;;;;;;;;;;5089389;28;19924;-62
2023/11/20 01:32:31;;;;;;;;;;;;;;;;;;5107515;28;19977;-62
2023/11/20 01:34:57;;;;;;;;;;;;;;;;;;5109354;28;20357;-62
2023/11/20 01:37:23;;;;;;;;;;;;;;;;;;5107868;28;20407;-62
2023/11/20 01:39:49;;;;;;;;;;;;;;;;;;5110111;28;19923;-62
2023/11/20 01:42:15;;;;;;;;;;;;;;;;;;5110118;28;19939;-63
2023/11/20 01:44:41;;;;;;;;;;;;;;;;;;5105217;28;19923;-62
2023/11/20 01:47:06;;;;;;;;;;;;;;;;;;5112911;28;19924;-62
2023/11/20 01:49:32;;;;;;;;;;;;;;;;;;5111603;27;19924;-62
2023/11/20 01:51:58;;;;;;;;;;;;;;;;;;5113127;28;19935;-62
2023/11/20 01:54:24;;;;;;;;;;;;;;;;;;5112870;27;20246;-62
2023/11/20 01:56:50;;;;;;;;;;;;;;;;;;5114252;28;19927;-62
2023/11/20 01:59:16;;;;;;;;;;;;;;;;;;5108014;28;19924;-62
2023/11/20 02:01:42;;;;;;;;;;;;;;;;;;5111245;28;19923;-62
2023/11/20 02:04:08;;;;;;;;;;;;;;;;;;5111990;28;19942;-62
2023/11/20 02:06:34;;;;;;;;;;;;;;;;;;5112838;28;19920;-62
2023/11/20 02:09:00;;;;;;;;;;;;;;;;;;5108504;28;19924;-62
2023/11/20 02:11:26;;;;;;;;;;;;;;;;;;5109444;28;19926;-62
2023/11/20 02:13:52;;;;;;;;;;;;;;;;;;5111116;28;19996;-62
2023/11/20 02:16:17;;;;;;;;;;;;;;;;;;5112351;28;20145;-62
2023/11/20 02:18:43;;;;;;;;;;;;;;;;;;5110176;28;19924;-62
2023/11/20 02:21:09;;;;;;;;;;;;;;;;;;5112180;28;19928;-62
2023/11/20 02:23:35;;;;;;;;;;;;;;;;;;5128775;27;19920;-62
2023/11/20 02:26:01;;;;;;;;;;;;;;;;;;5097708;22;19936;-62
2023/11/20 02:28:27;;;;;;;;;;;;;;;;;;5056080;28;20289;-62
2023/11/20 02:30:53;;;;;;;;;;;;;;;;;;5047766;28;19924;-62
2023/11/20 02:33:19;;;;;;;;;;;;;;;;;;5052379;28;19939;-62
2023/11/20 02:35:45;;;;;;;;;;;;;;;;;;5052841;28;19925;-62
2023/11/20 02:38:11;;;;;;;;;;;;;;;;;;5052590;28;19921;-62
2023/11/20 02:40:37;;;;;;;;;;;;;;;;;;5052162;28;19929;-62
2023/11/20 02:43:03;;;;;;;;;;;;;;;;;;5053267;28;19975;-63
2023/11/20 02:45:29;;;;;;;;;;;;;;;;;;5051487;28;20521;-63
2023/11/20 02:47:54;;;;;;;;;;;;;;;;;;5052521;28;19956;-63
2023/11/20 02:50:20;;;;;;;;;;;;;;;;;;5050888;28;19921;-63
2023/11/20 02:52:46;;;;;;;;;;;;;;;;;;5050463;28;20289;-62
2023/11/20 02:55:13;;;;;;;;;;;;;;;;;;5036795;28;19925;-62
2023/11/20 02:57:39;;;;;;;;;;;;;;;;;;5051698;28;19996;-62
2023/11/20 03:00:11;;;;;;;;;;;;;;;;;;5060837;28;20011;-62
2023/11/20 03:02:37;;;;;;;;;;;;;;;;;;5051713;28;20623;-62
2023/11/20 03:05:03;;;;;;;;;;;;;;;;;;5052425;28;19999;-63
2023/11/20 03:07:29;;;;;;;;;;;;;;;;;;5029824;28;20466;-62
2023/11/20 03:09:55;;;;;;;;;;;;;;;;;;5050146;28;19932;-62
2023/11/20 03:12:21;;;;;;;;;;;;;;;;;;5032022;28;19936;-63
2023/11/20 03:14:47;;;;;;;;;;;;;;;;;;5050473;28;19929;-63
2023/11/20 03:17:13;;;;;;;;;;;;;;;;;;5047694;28;19929;-62
2023/11/20 03:19:39;;;;;;;;;;;;;;;;;;5047636;28;19924;-63
2023/11/20 03:22:05;;;;;;;;;;;;;;;;;;5050293;28;19935;-63
2023/11/20 03:24:31;;;;;;;;;;;;;;;;;;5050949;28;20007;-62
2023/11/20 03:26:57;;;;;;;;;;;;;;;;;;5044258;28;19955;-63
2023/11/20 03:29:23;;;;;;;;;;;;;;;;;;5045262;28;19971;-63
2023/11/20 03:31:48;;;;;;;;;;;;;;;;;;5051360;28;19927;-62
2023/11/20 03:34:14;;;;;;;;;;;;;;;;;;5052423;28;20267;-63
2023/11/20 03:36:40;;;;;;;;;;;;;;;;;;5047688;28;19932;-62
2023/11/20 03:39:07;;;;;;;;;;;;;;;;;;5049063;28;19931;-63
2023/11/20 03:41:33;;;;;;;;;;;;;;;;;;5050498;28;19928;-62
2023/11/20 03:43:59;;;;;;;;;;;;;;;;;;5049705;28;19921;-63
2023/11/20 03:46:25;;;;;;;;;;;;;;;;;;5048358;28;20283;-63
2023/11/20 03:48:51;;;;;;;;;;;;;;;;;;5049778;28;19921;-62
2023/11/20 03:51:17;;;;;;;;;;;;;;;;;;5031909;28;19932;-62
2023/11/20 03:53:43;;;;;;;;;;;;;;;;;;5051492;28;19931;-62
2023/11/20 03:56:09;;;;;;;;;;;;;;;;;;5049799;28;20393;-62
2023/11/20 03:58:35;;;;;;;;;;;;;;;;;;5053800;28;19920;-62
2023/11/20 04:01:02;;;;;;;;;;;;;;;;;;5033964;28;19946;-62
2023/11/20 04:03:28;;;;;;;;;;;;;;;;;;5034115;28;19927;-62
2023/11/20 04:05:54;;;;;;;;;;;;;;;;;;5051941;28;20277;-62
2023/11/20 04:08:21;;;;;;;;;;;;;;;;;;5033695;28;19931;-62
2023/11/20 04:10:47;;;;;;;;;;;;;;;;;;5050391;28;19925;-62
2023/11/20 04:13:13;;;;;;;;;;;;;;;;;;5012395;28;19971;-62
2023/11/20 04:15:38;;;;;;;;;;;;;;;;;;5055065;28;19925;-62
2023/11/20 04:18:04;;;;;;;;;;;;;;;;;;5051583;28;19956;-62
2023/11/20 04:20:30;;;;;;;;;;;;;;;;;;5033644;28;20016;-62
2023/11/20 04:22:56;;;;;;;;;;;;;;;;;;5058238;28;20288;-62
2023/11/20 04:25:22;;;;;;;;;;;;;;;;;;5033467;28;19924;-62
2023/11/20 04:27:52;;;;;;;;;;;;;;;;;;5054890;28;19929;-62
2023/11/20 04:30:18;;;;;;;;;;;;;;;;;;5035225;28;19991;-62
2023/11/20 04:32:44;;;;;;;;;;;;;;;;;;5051279;28;20374;-62
2023/11/20 04:35:10;;;;;;;;;;;;;;;;;;5055228;28;19920;-62
2023/11/20 04:37:36;;;;;;;;;;;;;;;;;;5057979;28;19920;-62
2023/11/20 04:40:02;;;;;;;;;;;;;;;;;;5037033;28;19921;-62
2023/11/20 04:42:28;;;;;;;;;;;;;;;;;;5061146;28;19924;-62
2023/11/20 04:44:53;;;;;;;;;;;;;;;;;;5033547;28;19921;-62
2023/11/20 04:47:19;;;;;;;;;;;;;;;;;;5054693;28;19920;-62
2023/11/20 04:49:45;;;;;;;;;;;;;;;;;;5051440;28;20014;-62
2023/11/20 04:52:11;;;;;;;;;;;;;;;;;;5035144;28;20274;-62
2023/11/20 04:54:37;;;;;;;;;;;;;;;;;;5050651;28;19929;-62
2023/11/20 04:57:03;;;;;;;;;;;;;;;;;;5053056;28;19921;-62
2023/11/20 04:59:29;;;;;;;;;;;;;;;;;;5053613;28;20529;-62
2023/11/20 05:01:55;;;;;;;;;;;;;;;;;;5050548;28;19931;-62
2023/11/20 05:04:22;;;;;;;;;;;;;;;;;;5050632;28;20354;-62
2023/11/20 05:06:48;;;;;;;;;;;;;;;;;;5050414;28;19925;-63
2023/11/20 05:09:16;;;;;;;;;;;;;;;;;;5050723;28;19928;-62
2023/11/20 05:11:42;;;;;;;;;;;;;;;;;;5051446;28;19925;-62
2023/11/20 05:14:08;;;;;;;;;;;;;;;;;;5048762;28;19932;-62
2023/11/20 05:16:34;;;;;;;;;;;;;;;;;;5030756;28;19975;-62
2023/11/20 05:19:00;;;;;;;;;;;;;;;;;;5051172;28;19925;-62
2023/11/20 05:21:26;;;;;;;;;;;;;;;;;;5055586;28;20370;-62
2023/11/20 05:23:51;;;;;;;;;;;;;;;;;;5055230;28;19966;-62
2023/11/20 05:26:18;;;;;;;;;;;;;;;;;;5055532;28;19974;-62
2023/11/20 05:28:44;;;;;;;;;;;;;;;;;;5018033;28;19937;-62
2023/11/20 05:31:10;;;;;;;;;;;;;;;;;;5036718;28;20387;-62
2023/11/20 05:33:36;;;;;;;;;;;;;;;;;;5054700;28;20016;-62
2023/11/20 05:36:03;;;;;;;;;;;;;;;;;;5052928;28;19925;-62
2023/11/20 05:38:29;;;;;;;;;;;;;;;;;;5035992;28;19928;-62
2023/11/20 05:40:55;;;;;;;;;;;;;;;;;;5035110;28;19956;-62
2023/11/20 05:43:21;;;;;;;;;;;;;;;;;;5052331;28;19963;-62
2023/11/20 05:45:47;;;;;;;;;;;;;;;;;;5048811;28;19925;-63
2023/11/20 05:48:13;;;;;;;;;;;;;;;;;;5055126;28;19921;-62
2023/11/20 05:50:39;;;;;;;;;;;;;;;;;;5053179;28;20378;-62
2023/11/20 05:53:05;;;;;;;;;;;;;;;;;;5052819;28;19932;-62
2023/11/20 05:55:32;;;;;;;;;;;;;;;;;;5054141;28;19921;-63
2023/11/20 05:57:59;;;;;;;;;;;;;;;;;;5051606;28;19963;-62
2023/11/20 06:00:26;;;;;;;;;;;;;;;;;;5036430;28;19921;-62
2023/11/20 06:02:52;;;;;;;;;;;;;;;;;;5035164;28;20070;-62
2023/11/20 06:05:18;;;;;;;;;;;;;;;;;;5018136;28;20011;-62
2023/11/20 06:07:44;;;;;;;;;;;;;;;;;;5051399;28;19924;-62
2023/11/20 06:10:11;;;;;;;;;;;;;;;;;;5052134;28;19948;-63
2023/11/20 06:12:36;;;;;;;;;;;;;;;;;;5052345;28;20301;-62
2023/11/20 06:15:02;;;;;;;;;;;;;;;;;;5033198;28;19925;-62
2023/11/20 06:17:29;;;;;;;;;;;;;;;;;;5050754;28;19975;-62
2023/11/20 06:19:55;;;;;;;;;;;;;;;;;;5035310;28;19924;-63
2023/11/20 06:22:21;;;;;;;;;;;;;;;;;;5051401;28;19959;-63
2023/11/20 06:24:46;;;;;;;;;;;;;;;;;;5050831;28;19925;-66
2023/11/20 06:27:12;;;;;;;;;;;;;;;;;;5032619;28;19925;-63
2023/11/20 06:29:38;;;;;;;;;;;;;;;;;;5051417;28;19952;-65
2023/11/20 06:32:06;;;;;;;;;;;;;;;;;;5051648;28;19931;-62
2023/11/20 06:34:32;;;;;;;;;;;;;;;;;;5050496;28;19927;-62
2023/11/20 06:36:58;;;;;;;;;;;;;;;;;;5049960;28;19928;-62
2023/11/20 06:39:24;;;;;;;;;;;;;;;;;;5051048;28;19974;-62
2023/11/20 06:41:50;;;;;;;;;;;;;;;;;;5043328;28;19956;-61
2023/11/20 06:44:16;;;;;;;;;;;;;;;;;;5050225;28;20452;-62
2023/11/20 06:46:42;;;;;;;;;;;;;;;;;;5051812;28;20424;-61
2023/11/20 06:49:08;;;;;;;;;;;;;;;;;;5052149;28;19952;-61
2023/11/20 06:51:34;;;;;;;;;;;;;;;;;;5051170;28;19927;-62
2023/11/20 06:54:00;;;;;;;;;;;;;;;;;;5016512;28;19932;-62
2023/11/20 06:56:26;;;;;;;;;;;;;;;;;;5051481;28;20015;-62
2023/11/20 06:58:56;;;;;;;;;;;;;;;;;;5054785;28;20016;-62
2023/11/20 07:01:22;;;;;;;;;;;;;;;;;;5057110;28;20262;-62
2023/11/20 07:03:48;;;;;;;;;;;;;;;;;;5034036;28;19921;-62
2023/11/20 07:06:14;;;;;;;;;;;;;;;;;;5051593;28;19927;-62
2023/11/20 07:08:40;;;;;;;;;;;;;;;;;;5052186;28;19936;-62
2023/11/20 07:11:06;;;;;;;;;;;;;;;;;;5051832;28;19929;-62
2023/11/20 07:13:32;;;;;;;;;;;;;;;;;;5049218;28;19982;-62
2023/11/20 07:15:58;;;;;;;;;;;;;;;;;;5049446;28;20247;-62
2023/11/20 07:18:23;;;;;;;;;;;;;;;;;;5044536;28;19925;-62
2023/11/20 07:20:49;;;;;;;;;;;;;;;;;;5046496;28;19924;-62
2023/11/20 07:23:15;;;;;;;;;;;;;;;;;;5051256;28;19928;-62
2023/11/20 07:25:42;;;;;;;;;;;;;;;;;;5045554;28;20424;-62
2023/11/20 07:28:08;;;;;;;;;;;;;;;;;;5045688;28;19974;-62
2023/11/20 07:30:34;;;;;;;;;;;;;;;;;;5044615;28;20263;-62
2023/11/20 07:33:00;;;;;;;;;;;;;;;;;;5045687;28;19929;-62
2023/11/20 07:35:26;;;;;;;;;;;;;;;;;;5050296;28;20389;-61
2023/11/20 07:37:51;;;;;;;;;;;;;;;;;;5049142;28;19925;-62
2023/11/20 07:40:18;;;;;;;;;;;;;;;;;;5052231;28;19925;-62
2023/11/20 07:42:44;;;;;;;;;;;;;;;;;;5017525;28;20394;-62
2023/11/20 07:45:10;;;;;;;;;;;;;;;;;;5033925;28;19925;-62
2023/11/20 07:47:36;;;;;;;;;;;;;;;;;;5034377;28;19921;-63
2023/11/20 07:50:02;;;;;;;;;;;;;;;;;;5049073;28;19948;-62
2023/11/20 07:52:28;;;;;;;;;;;;;;;;;;5052080;28;20389;-62
2023/11/20 07:54:54;;;;;;;;;;;;;;;;;;5057490;28;19966;-63
2023/11/20 07:57:21;;;;;;;;;;;;;;;;;;5061087;28;20347;-63
2023/11/20 07:59:47;;;;;;;;;;;;;;;;;;5066763;28;20289;-62
2023/11/20 08:02:13;;;;;;;;;;;;;;;;;;5065826;28;19920;-62
2023/11/20 08:04:39;;;;;;;;;;;;;;;;;;5043556;28;19929;-62
2023/11/20 08:07:05;;;;;;;;;;;;;;;;;;5052291;28;19989;-62
2023/11/20 08:09:31;;;;;;;;;;;;;;;;;;5051987;28;19921;-62
2023/11/20 08:11:57;;;;;;;;;;;;;;;;;;5052698;28;19940;-62
2023/11/20 08:14:23;;;;;;;;;;;;;;;;;;5032660;28;20309;-62
2023/11/20 08:16:48;;;;;;;;;;;;;;;;;;5034435;28;19925;-63
2023/11/20 08:19:15;;;;;;;;;;;;;;;;;;5056722;28;19920;-63
2023/11/20 08:21:41;;;;;;;;;;;;;;;;;;5056663;28;19920;-62
2023/11/20 08:24:07;;;;;;;;;;;;;;;;;;5042744;28;20613;-62
2023/11/20 08:26:33;;;;;;;;;;;;;;;;;;5111733;22;19928;-60
2023/11/20 08:28:59;;;;;;;;;;;;;;;;;;5110507;28;19920;-60
2023/11/20 08:31:25;;;;;;;;;;;;;;;;;;5112261;28;19924;-60
2023/11/20 08:33:51;;;;;;;;;;;;;;;;;;5104729;28;20068;-59
2023/11/20 08:36:17;;;;;;;;;;;;;;;;;;5103672;28;19976;-59
2023/11/20 08:38:43;;;;;;;;;;;;;;;;;;5106402;28;19972;-59
2023/11/20 08:41:09;;;;;;;;;;;;;;;;;;5110878;28;20701;-60
2023/11/20 08:43:35;;;;;;;;;;;;;;;;;;5104703;28;19989;-60
2023/11/20 08:46:01;;;;;;;;;;;;;;;;;;5100732;28;19934;-60
2023/11/20 08:48:26;;;;;;;;;;;;;;;;;;5104931;28;19920;-60
2023/11/20 08:50:54;;;;;;;;;;;;;;;;;;5110235;28;20020;-59
2023/11/20 08:53:21;;;;;;;;;;;;;;;;;;5100430;28;20562;-59
2023/11/20 08:55:48;;;;;;;;;;;;;;;;;;5113294;28;19920;-59
2023/11/20 08:58:14;;;;;;;;;;;;;;;;;;5106819;28;19920;-59
2023/11/20 09:00:40;;;;;;;;;;;;;;;;;;5112518;28;19934;-59
2023/11/20 09:03:05;;;;;;;;;;;;;;;;;;5115703;28;20353;-59
2023/11/20 09:05:31;;;;;;;;;;;;;;;;;;5110794;28;20314;-59
2023/11/20 09:07:58;;;;;;;;;;;;;;;;;;5114121;28;20006;-59
2023/11/20 09:10:24;;;;;;;;;;;;;;;;;;5107792;28;20277;-59
2023/11/20 09:12:50;;;;;;;;;;;;;;;;;;5116243;28;19920;-59
2023/11/20 09:15:16;;;;;;;;;;;;;;;;;;5110545;28;20420;-59
2023/11/20 09:17:42;;;;;;;;;;;;;;;;;;5113386;28;19924;-60
2023/11/20 09:20:10;;;;;;;;;;;;;;;;;;5107926;28;19980;-60
2023/11/20 09:22:36;;;;;;;;;;;;;;;;;;5112571;28;19920;-60
2023/11/20 09:25:02;;;;;;;;;;;;;;;;;;5103843;28;19981;-60
2023/11/20 09:27:28;;;;;;;;;;;;;;;;;;5109853;28;19928;-60
2023/11/20 09:29:54;;;;;;;;;;;;;;;;;;5106376;28;19931;-60
2023/11/20 09:32:22;;;;;;;;;;;;;;;;;;5111694;28;22563;-60
2023/11/20 09:34:48;;;;;;;;;;;;;;;;;;5113403;28;20023;-59
2023/11/20 09:37:14;;;;;;;;;;;;;;;;;;5108919;28;20019;-59
2023/11/20 09:39:42;;;;;;;;;;;;;;;;;;5108627;28;20373;-59
2023/11/20 09:42:08;;;;;;;;;;;;;;;;;;5114682;28;19920;-59
2023/11/20 09:44:37;;;;;;;;;;;;;;;;;;5104467;28;19950;-59
2023/11/20 09:47:03;;;;;;;;;;;;;;;;;;5109127;28;19919;-59
2023/11/20 09:49:29;;;;;;;;;;;;;;;;;;5109261;28;19981;-59
2023/11/20 09:51:55;;;;;;;;;;;;;;;;;;5114311;28;20338;-59
2023/11/20 09:54:21;;;;;;;;;;;;;;;;;;5105138;28;19920;-59
2023/11/20 09:56:47;;;;;;;;;;;;;;;;;;5114226;28;20479;-59
2023/11/20 09:59:13;;;;;;;;;;;;;;;;;;5107566;28;19963;-60
2023/11/20 10:01:43;;;;;;;;;;;;;;;;;;5108742;28;19982;-60
2023/11/20 10:04:08;;;;;;;;;;;;;;;;;;5114187;28;19960;-60
2023/11/20 10:06:35;;;;;;;;;;;;;;;;;;5114054;28;19970;-60
2023/11/20 10:09:02;;;;;;;;;;;;;;;;;;5110781;28;19931;-60
2023/11/20 10:11:28;;;;;;;;;;;;;;;;;;5114089;28;19979;-60
2023/11/20 10:13:55;;;;;;;;;;;;;;;;;;5114119;28;19962;-60
2023/11/20 10:16:26;;;;;;;;;;;;;;;;;;5113188;28;19971;-60
2023/11/20 10:18:52;;;;;;;;;;;;;;;;;;5109776;28;20326;-60
2023/11/20 10:21:18;;;;;;;;;;;;;;;;;;5108397;28;19930;-60
2023/11/20 10:23:44;;;;;;;;;;;;;;;;;;5108275;28;20036;-60
2023/11/20 10:26:11;;;;;;;;;;;;;;;;;;5113748;28;19928;-60
2023/11/20 10:28:36;;;;;;;;;;;;;;;;;;5101646;28;19966;-60
2023/11/20 10:31:03;;;;;;;;;;;;;;;;;;5112181;28;20614;-60
2023/11/20 10:33:28;;;;;;;;;;;;;;;;;;5113580;28;20010;-60
2023/11/20 10:35:54;;;;;;;;;;;;;;;;;;5113747;28;20003;-60
2023/11/20 10:38:20;;;;;;;;;;;;;;;;;;5104743;28;20413;-60
2023/11/20 10:40:49;;;;;;;;;;;;;;;;;;5113681;28;19920;-60
2023/11/20 10:43:15;;;;;;;;;;;;;;;;;;5112005;28;19924;-60
2023/11/20 10:45:41;;;;;;;;;;;;;;;;;;5113868;28;19919;-60
2023/11/20 10:48:07;;;;;;;;;;;;;;;;;;5113326;28;20011;-60
2023/11/20 10:50:33;;;;;;;;;;;;;;;;;;5113310;28;19928;-60
2023/11/20 10:53:00;;;;;;;;;;;;;;;;;;5102535;28;19923;-60
2023/11/20 10:55:26;;;;;;;;;;;;;;;;;;5113558;28;19920;-60
2023/11/20 10:57:52;;;;;;;;;;;;;;;;;;5113369;28;19927;-60
2023/11/20 11:00:21;;;;;;;;;;;;;;;;;;5112339;27;20495;-60
2023/11/20 11:02:47;;;;;;;;;;;;;;;;;;5111893;28;20336;-60
2023/11/20 11:05:13;;;;;;;;;;;;;;;;;;5110531;28;19967;-60
2023/11/20 11:07:39;;;;;;;;;;;;;;;;;;5107329;28;19976;-60
2023/11/20 11:10:08;;;;;;;;;;;;;;;;;;5112826;28;19976;-60
2023/11/20 11:12:34;;;;;;;;;;;;;;;;;;5113626;28;20008;-60
2023/11/20 11:15:00;;;;;;;;;;;;;;;;;;5113583;28;20372;-60
2023/11/20 11:17:26;;;;;;;;;;;;;;;;;;5109406;28;19926;-60
2023/11/20 11:19:52;;;;;;;;;;;;;;;;;;5105685;28;19924;-60
2023/11/20 11:22:18;;;;;;;;;;;;;;;;;;5112961;28;20315;-60
2023/11/20 11:24:44;;;;;;;;;;;;;;;;;;5107278;28;19924;-60
2023/11/20 11:27:10;;;;;;;;;;;;;;;;;;5110383;28;19923;-60
2023/11/20 11:29:36;;;;;;;;;;;;;;;;;;5107593;28;20396;-60
2023/11/20 11:32:04;;;;;;;;;;;;;;;;;;5111780;28;19924;-60
2023/11/20 11:34:29;;;;;;;;;;;;;;;;;;5106410;28;20309;-60
2023/11/20 11:36:55;;;;;;;;;;;;;;;;;;5107701;28;19927;-60
2023/11/20 11:39:22;;;;;;;;;;;;;;;;;;5106511;28;19927;-58
2023/11/20 11:41:48;;;;;;;;;;;;;;;;;;5105695;27;19928;-59
2023/11/20 11:44:14;;;;;;;;;;;;;;;;;;5097850;28;19946;-59
2023/11/20 11:46:40;;;;;;;;;;;;;;;;;;5109959;28;19924;-62
2023/11/20 11:49:06;;;;;;;;;;;;;;;;;;5112661;28;19924;-62
2023/11/20 11:51:32;;;;;;;;;;;;;;;;;;5091728;28;19959;-62
2023/11/20 11:53:58;;;;;;;;;;;;;;;;;;5107028;28;20455;-62
2023/11/20 11:56:24;;;;;;;;;;;;;;;;;;5112704;28;19923;-62
2023/11/20 11:58:50;;;;;;;;;;;;;;;;;;5109846;28;19984;-61
2023/11/20 12:01:16;;;;;;;;;;;;;;;;;;5112960;28;19920;-62
2023/11/20 12:03:42;;;;;;;;;;;;;;;;;;5112440;28;20336;-62
2023/11/20 12:06:09;;;;;;;;;;;;;;;;;;5094265;28;19934;-63
2023/11/20 12:08:35;;;;;;;;;;;;;;;;;;5108308;28;19920;-65
2023/11/20 12:11:01;;;;;;;;;;;;;;;;;;5110913;28;19924;-63
2023/11/20 12:13:26;;;;;;;;;;;;;;;;;;5112182;28;20299;-62
2023/11/20 12:15:52;;;;;;;;;;;;;;;;;;5128236;27;19920;-62
2023/11/20 12:18:18;;;;;;;;;;;;;;;;;;5110760;28;19935;-63
2023/11/20 12:20:44;;;;;;;;;;;;;;;;;;5110423;28;19923;-64
2023/11/20 12:23:10;;;;;;;;;;;;;;;;;;5110107;28;19977;-64
2023/11/20 12:25:36;;;;;;;;;;;;;;;;;;5105575;28;19924;-63
2023/11/20 12:28:02;;;;;;;;;;;;;;;;;;5112012;28;19927;-64
2023/11/20 12:30:28;;;;;;;;;;;;;;;;;;5111928;28;19928;-64
2023/11/20 12:32:54;;;;;;;;;;;;;;;;;;5101442;28;20431;-63
2023/11/20 12:35:20;;;;;;;;;;;;;;;;;;5109532;28;19927;-63
2023/11/20 12:37:46;;;;;;;;;;;;;;;;;;5107107;28;19919;-64
2023/11/20 12:40:12;;;;;;;;;;;;;;;;;;5107759;28;19928;-64
2023/11/20 12:42:39;;;;;;;;;;;;;;;;;;5111187;28;19930;-64
2023/11/20 12:45:05;;;;;;;;;;;;;;;;;;5111243;28;19926;-64
2023/11/20 12:47:33;;;;;;;;;;;;;;;;;;5110986;28;20335;-63
2023/11/20 12:49:58;;;;;;;;;;;;;;;;;;5110528;28;20383;-63
2023/11/20 12:52:24;;;;;;;;;;;;;;;;;;5111040;28;20022;-63
2023/11/20 12:54:51;;;;;;;;;;;;;;;;;;5103576;28;19919;-64
2023/11/20 12:57:17;;;;;;;;;;;;;;;;;;5110565;28;20384;-63
2023/11/20 12:59:44;;;;;;;;;;;;;;;;;;5110203;28;19927;-63
2023/11/20 13:02:10;;;;;;;;;;;;;;;;;;5110764;28;19926;-63
2023/11/20 13:04:36;;;;;;;;;;;;;;;;;;5110996;28;19924;-63
2023/11/20 13:07:02;;;;;;;;;;;;;;;;;;5111513;28;19920;-63
2023/11/20 13:09:29;;;;;;;;;;;;;;;;;;5108332;28;20692;-64
2023/11/20 13:11:55;;;;;;;;;;;;;;;;;;5107268;28;20337;-64
2023/11/20 13:14:21;;;;;;;;;;;;;;;;;;5111614;28;20018;-62
2023/11/20 13:16:47;;;;;;;;;;;;;;;;;;5109866;28;20027;-64
2023/11/20 13:19:13;;;;;;;;;;;;;;;;;;5110479;28;19991;-63
2023/11/20 13:21:41;;;;;;;;;;;;;;;;;;5109402;28;19919;-64
2023/11/20 13:24:09;;;;;;;;;;;;;;;;;;5106656;28;19931;-63
2023/11/20 13:26:35;;;;;;;;;;;;;;;;;;5090785;28;19928;-63
2023/11/20 13:29:03;;;;;;;;;;;;;;;;;;5104898;28;20387;-64
2023/11/20 13:31:28;;;;;;;;;;;;;;;;;;5110065;28;19932;-63
2023/11/20 13:33:54;;;;;;;;;;;;;;;;;;5103929;28;19981;-63
2023/11/20 13:36:21;;;;;;;;;;;;;;;;;;5103655;28;19920;-62
2023/11/20 13:38:48;;;;;;;;;;;;;;;;;;5102247;28;19971;-62
2023/11/20 13:41:16;;;;;;;;;;;;;;;;;;5105174;28;20388;-62
2023/11/20 13:43:42;;;;;;;;;;;;;;;;;;5105402;28;19924;-64
2023/11/20 13:46:08;;;;;;;;;;;;;;;;;;5114846;28;20014;-63
2023/11/20 13:48:34;;;;;;;;;;;;;;;;;;5114147;28;20011;-62
2023/11/20 13:51:01;;;;;;;;;;;;;;;;;;5112832;28;20566;-63
2023/11/20 13:53:27;;;;;;;;;;;;;;;;;;5114315;28;19924;-63
2023/11/20 13:55:53;;;;;;;;;;;;;;;;;;5109241;28;19964;-63
2023/11/20 13:58:24;;;;;;;;;;;;;;;;;;5103784;28;19928;-64
2023/11/20 14:00:51;;;;;;;;;;;;;;;;;;5105509;28;19923;-63
2023/11/20 14:03:19;;;;;;;;;;;;;;;;;;5110806;28;19928;-63
2023/11/20 14:05:45;;;;;;;;;;;;;;;;;;5111098;28;19931;-63
2023/11/20 14:08:11;;;;;;;;;;;;;;;;;;5103086;28;20336;-64
2023/11/20 14:10:37;;;;;;;;;;;;;;;;;;5107767;28;19970;-63
2023/11/20 14:13:04;;;;;;;;;;;;;;;;;;5106171;28;20086;-63
2023/11/20 14:15:30;;;;;;;;;;;;;;;;;;5097730;28;20586;-62
2023/11/20 14:17:55;;;;;;;;;;;;;;;;;;5109246;28;19927;-63
2023/11/20 14:20:21;;;;;;;;;;;;;;;;;;5107353;28;19924;-63
2023/11/20 14:22:47;;;;;;;;;;;;;;;;;;5085416;28;19935;-64
2023/11/20 14:25:16;;;;;;;;;;;;;;;;;;5106539;28;19927;-63
2023/11/20 14:27:42;;;;;;;;;;;;;;;;;;5105173;28;19973;-63
2023/11/20 14:30:11;;;;;;;;;;;;;;;;;;5109308;28;19928;-63
2023/11/20 14:32:37;;;;;;;;;;;;;;;;;;5096260;28;19920;-63
2023/11/20 14:35:03;;;;;;;;;;;;;;;;;;5112289;28;20310;-63
2023/11/20 14:37:28;;;;;;;;;;;;;;;;;;5109352;28;19924;-62
2023/11/20 14:39:55;;;;;;;;;;;;;;;;;;5093274;28;19927;-62
2023/11/20 14:42:21;;;;;;;;;;;;;;;;;;5108936;28;20369;-62
2023/11/20 14:44:46;;;;;;;;;;;;;;;;;;5108489;28;19955;-63
2023/11/20 14:47:12;;;;;;;;;;;;;;;;;;5106339;28;19927;-63
2023/11/20 14:49:38;;;;;;;;;;;;;;;;;;5105382;28;20395;-63
2023/11/20 14:52:04;;;;;;;;;;;;;;;;;;5086300;28;19924;-63
2023/11/20 14:54:31;;;;;;;;;;;;;;;;;;5103324;28;19965;-63
2023/11/20 14:56:56;;;;;;;;;;;;;;;;;;5108187;28;19924;-63
2023/11/20 14:59:22;;;;;;;;;;;;;;;;;;5118536;27;19961;-63
2023/11/20 15:01:50;;;;;;;;;;;;;;;;;;5103987;28;20373;-62
2023/11/20 15:04:17;;;;;;;;;;;;;;;;;;5100660;28;19919;-63
2023/11/20 15:06:43;;;;;;;;;;;;;;;;;;5102169;28;20353;-63
2023/11/20 15:09:09;;;;;;;;;;;;;;;;;;5105115;28;19988;-63
2023/11/20 15:11:35;;;;;;;;;;;;;;;;;;5101135;28;20239;-63
2023/11/20 15:14:01;;;;;;;;;;;;;;;;;;5087095;28;19920;-63
2023/11/20 15:16:27;;;;;;;;;;;;;;;;;;5099234;28;20243;-63
2023/11/20 15:18:53;;;;;;;;;;;;;;;;;;5107953;28;19927;-63
2023/11/20 15:21:19;;;;;;;;;;;;;;;;;;5101558;28;20398;-63
2023/11/20 15:23:45;;;;;;;;;;;;;;;;;;5108876;28;19969;-62
2023/11/20 15:26:11;;;;;;;;;;;;;;;;;;5100576;28;20015;-63
2023/11/20 15:28:37;;;;;;;;;;;;;;;;;;5104305;28;19920;-63
2023/11/20 15:31:04;;;;;;;;;;;;;;;;;;5111842;28;19985;-62
2023/11/20 15:33:30;;;;;;;;;;;;;;;;;;5104597;28;19951;-62
2023/11/20 15:35:56;;;;;;;;;;;;;;;;;;5112814;28;19959;-62
2023/11/20 15:38:22;;;;;;;;;;;;;;;;;;5113367;28;19934;-62
2023/11/20 15:40:48;;;;;;;;;;;;;;;;;;5102302;28;19976;-62
2023/11/20 15:43:14;;;;;;;;;;;;;;;;;;5098850;28;20006;-63
2023/11/20 15:45:40;;;;;;;;;;;;;;;;;;5109994;28;19973;-62
2023/11/20 15:48:06;;;;;;;;;;;;;;;;;;5108224;28;19923;-62
2023/11/20 15:50:32;;;;;;;;;;;;;;;;;;5112483;28;19927;-62
2023/11/20 15:52:58;;;;;;;;;;;;;;;;;;5112392;28;19920;-62
2023/11/20 15:55:24;;;;;;;;;;;;;;;;;;5112291;28;19997;-62
2023/11/20 15:57:52;;;;;;;;;;;;;;;;;;5101470;28;20242;-62
2023/11/20 16:00:18;;;;;;;;;;;;;;;;;;5097829;28;20487;-63
2023/11/20 16:02:44;;;;;;;;;;;;;;;;;;5111796;28;19999;-63
2023/11/20 16:05:10;;;;;;;;;;;;;;;;;;5107806;28;19926;-64
2023/11/20 16:07:36;;;;;;;;;;;;;;;;;;5104871;28;19924;-64
2023/11/20 16:10:02;;;;;;;;;;;;;;;;;;5100654;28;19927;-63
2023/11/20 16:12:28;;;;;;;;;;;;;;;;;;5107242;28;19967;-62
2023/11/20 16:14:54;;;;;;;;;;;;;;;;;;5105578;28;19919;-62
2023/11/20 16:17:20;;;;;;;;;;;;;;;;;;5111282;28;19932;-64
2023/11/20 16:19:46;;;;;;;;;;;;;;;;;;5110722;28;20044;-64
2023/11/20 16:22:12;;;;;;;;;;;;;;;;;;5107298;28;19919;-63
2023/11/20 16:24:38;;;;;;;;;;;;;;;;;;5108858;28;19931;-63
2023/11/20 16:27:04;;;;;;;;;;;;;;;;;;5112313;28;19923;-64
2023/11/20 16:29:30;;;;;;;;;;;;;;;;;;5100275;28;20416;-63
2023/11/20 16:31:58;;;;;;;;;;;;;;;;;;5106040;28;20023;-63
2023/11/20 16:34:24;;;;;;;;;;;;;;;;;;5105124;28;19942;-63
2023/11/20 16:36:50;;;;;;;;;;;;;;;;;;5109499;28;19981;-63
2023/11/20 16:39:16;;;;;;;;;;;;;;;;;;5111183;28;20006;-64